METAR Data
IDs: Format: Raw Decoded Include TAF

Data at: 1523 UTC 21 Sep 2018

KLAX 211453Z 22004KT 8SM FEW010 FEW025 SCT140 19/16 A2999 RMK AO2 SLP152 T01940161 53013
KLAX 211353Z 22003KT 8SM FEW010 FEW026 SCT160 19/16 A2997 RMK AO2 SLP145 T01890156
KLAX 211253Z 00000KT 10SM FEW010 FEW015 SCT026 18/16 A2995 RMK AO2 SLP140 T01830156
KLAX 211226Z 10003KT 10SM FEW011 FEW015 SCT160 18/15 A2995 RMK AO2 T01830150
KLAX 211153Z 08003KT 10SM BKN014 18/16 A2995 RMK AO2 SLP138 T01830156 10200 20183 51001
KLAX 211053Z 00000KT 10SM BKN014 19/16 A2995 RMK AO2 SLP138 T01890156
KLAX 210953Z 03003KT 10SM OVC014 19/16 A2995 RMK AO2 SLP138 T01890156
KLAX 210945Z 11007KT 10SM OVC014 19/16 A2995 RMK AO2 T01940156
KLAX 210853Z 08005KT 10SM OVC015 19/16 A2994 RMK AO2 SLP137 T01940156 50000
KLAX 210759Z 08004KT 10SM OVC015 19/16 A2995 RMK AO2 T01940156
KLAX 210753Z 13003KT 10SM BKN012 19/16 A2995 RMK AO2 SLP138 T01940156 402500167
KLAX 210653Z 10006KT 10SM BKN012 20/16 A2995 RMK AO2 SLP138 T02000156
KLAX 210553Z 14005KT 10SM BKN012 20/16 A2994 RMK AO2 SLP137 T02000161 10228 20194 51018
KLAX 210453Z 15007KT 10SM BKN012 21/16 A2993 RMK AO2 SLP133 T02060161
KLAX 210353Z 00000KT 10SM OVC010 21/17 A2991 RMK AO2 SLP127 T02060172
KLAX 210253Z 26007KT 10SM BKN010 20/17 A2989 RMK AO2 SLP120 T02000167 53017
KLAX 210153Z 26006KT 9SM FEW010 21/17 A2986 RMK AO2 SLP111 T02060167
KLAX 210053Z 27007KT 10SM FEW010 21/17 A2985 RMK AO2 SLP106 T02110167
KLAX 202353Z 25008KT 10SM FEW010 23/17 A2984 RMK AO2 SLP103 T02280172 10250 20222 56004
KLAX 202253Z 26009KT 10SM CLR 23/17 A2984 RMK AO2 SLP103 T02280167
KLAX 202153Z 24011KT 10SM CLR 23/17 A2984 RMK AO2 SLP104 T02330167
KLAX 202053Z 24012KT 10SM CLR 23/17 A2985 RMK AO2 SLP106 T02330167 58005
KLAX 201953Z 25009KT 8SM FEW018 FEW040 24/17 A2985 RMK AO2 SLP108 T02390167
KLAX 201853Z 27008KT 8SM FEW017 FEW039 24/17 A2986 RMK AO2 SLP110 T02390167
KLAX 201753Z 07004KT 8SM SCT014 24/16 A2986 RMK AO2 SLP111 T02390156 10239 20167 51010
KLAX 201653Z 12004KT 8SM FEW010 SCT015 22/16 A2986 RMK AO2 SLP110 T02170156
KLAX 201553Z VRB05KT 7SM SCT009 SCT012 21/16 A2984 RMK AO2 SLP104 SCT012 V BKN T02060161
KLAX 201546Z 08004KT 7SM SCT009 SCT012 20/16 A2984 RMK AO2 SCT012 V BKN T02000161
KLAX 201453Z 15004KT 6SM BR SCT009 BKN011 18/16 A2984 RMK AO2 SLP102 T01830161 53021
KLAX 201429Z 09005KT 5SM BR SCT012 BKN014 18/16 A2983 RMK AO2 T01830161
KLAX 201353Z 09005KT 6SM BR FEW010 SCT014 18/16 A2981 RMK AO2 SLP092 T01780156
KLAX 201253Z 08003KT 10SM FEW010 FEW017 17/14 A2979 RMK AO2 SLP085 T01670144
KLAX 201153Z 00000KT 10SM FEW010 FEW017 17/14 A2978 RMK AO2 SLP080 T01720144 10200 20167 53002
KLAX 201053Z 03003KT 10SM FEW011 18/14 A2977 RMK AO2 SLP079 T01780144
KLAX 200953Z 00000KT 10SM FEW011 19/15 A2977 RMK AO2 SLP079 T01890150
KLAX 200853Z 00000KT 10SM FEW011 18/15 A2977 RMK AO2 SLP077 T01830150 53004
KLAX 200753Z 00000KT 10SM CLR 18/15 A2976 RMK AO2 SLP074 T01830150 402330161
KLAX 200653Z 00000KT 10SM CLR 19/15 A2976 RMK AO2 SLP074 T01940150
KLAX 200553Z 00000KT 10SM CLR 19/16 A2975 RMK AO2 SLP073 T01940161 10217 20194 50010
KLAX 200453Z VRB03KT 10SM CLR 19/16 A2976 RMK AO2 SLP075 T01940161
KLAX 200353Z 21003KT 10SM CLR 19/15 A2975 RMK AO2 SLP071 T01940150